sensor_id;sensor_type;location;lat;lon;timestamp;P1;durP1;ratioP1;P2;durP2;ratioP2
3991;SDS011;2010;48.194;16.394;2022-12-11T00:01:07;43.23;;;23.13;;
3991;SDS011;2010;48.194;16.394;2022-12-11T00:03:47;42.40;;;22.77;;
3991;SDS011;2010;48.194;16.394;2022-12-11T00:06:17;45.50;;;23.37;;
3991;SDS011;2010;48.194;16.394;2022-12-11T00:08:50;47.10;;;24.57;;
3991;SDS011;2010;48.194;16.394;2022-12-11T00:11:20;51.27;;;23.00;;
3991;SDS011;2010;48.194;16.394;2022-12-11T00:13:53;54.30;;;23.60;;
3991;SDS011;2010;48.194;16.394;2022-12-11T00:16:27;43.90;;;21.77;;
3991;SDS011;2010;48.194;16.394;2022-12-11T00:19:12;44.50;;;21.47;;
3991;SDS011;2010;48.194;16.394;2022-12-11T00:21:42;39.87;;;21.47;;
3991;SDS011;2010;48.194;16.394;2022-12-11T00:24:18;42.77;;;22.73;;
3991;SDS011;2010;48.194;16.394;2022-12-11T00:26:50;36.27;;;21.23;;
3991;SDS011;2010;48.194;16.394;2022-12-11T00:29:28;42.83;;;21.80;;
3991;SDS011;2010;48.194;16.394;2022-12-11T00:32:07;42.40;;;20.57;;
3991;SDS011;2010;48.194;16.394;2022-12-11T00:34:36;39.73;;;20.67;;
3991;SDS011;2010;48.194;16.394;2022-12-11T00:37:07;36.67;;;20.20;;
3991;SDS011;2010;48.194;16.394;2022-12-11T00:39:42;37.83;;;20.30;;
3991;SDS011;2010;48.194;16.394;2022-12-11T00:42:16;41.03;;;20.40;;
3991;SDS011;2010;48.194;16.394;2022-12-11T00:44:53;37.97;;;19.53;;
3991;SDS011;2010;48.194;16.394;2022-12-11T00:47:22;37.60;;;20.90;;
3991;SDS011;2010;48.194;16.394;2022-12-11T00:49:50;36.70;;;19.87;;
3991;SDS011;2010;48.194;16.394;2022-12-11T00:52:19;36.13;;;20.33;;
3991;SDS011;2010;48.194;16.394;2022-12-11T00:54:53;37.73;;;20.10;;
3991;SDS011;2010;48.194;16.394;2022-12-11T00:57:22;40.87;;;20.60;;
3991;SDS011;2010;48.194;16.394;2022-12-11T01:00:02;37.23;;;19.77;;
3991;SDS011;2010;48.194;16.394;2022-12-11T01:02:36;41.50;;;20.00;;
3991;SDS011;2010;48.194;16.394;2022-12-11T01:05:08;34.00;;;20.03;;
3991;SDS011;2010;48.194;16.394;2022-12-11T01:07:39;34.60;;;18.73;;
3991;SDS011;2010;48.194;16.394;2022-12-11T01:10:15;34.17;;;18.10;;
3991;SDS011;2010;48.194;16.394;2022-12-11T01:12:56;39.17;;;20.40;;
3991;SDS011;2010;48.194;16.394;2022-12-11T01:15:38;32.70;;;17.87;;
3991;SDS011;2010;48.194;16.394;2022-12-11T01:18:12;32.80;;;18.20;;
3991;SDS011;2010;48.194;16.394;2022-12-11T01:20:41;27.23;;;16.83;;
3991;SDS011;2010;48.194;16.394;2022-12-11T01:23:12;34.10;;;17.50;;
3991;SDS011;2010;48.194;16.394;2022-12-11T01:25:43;38.40;;;19.63;;
3991;SDS011;2010;48.194;16.394;2022-12-11T01:28:13;31.03;;;17.73;;
3991;SDS011;2010;48.194;16.394;2022-12-11T01:30:43;32.50;;;17.83;;
3991;SDS011;2010;48.194;16.394;2022-12-11T01:33:12;32.63;;;18.40;;
3991;SDS011;2010;48.194;16.394;2022-12-11T01:35:41;33.00;;;18.17;;
3991;SDS011;2010;48.194;16.394;2022-12-11T01:38:12;36.57;;;19.57;;
3991;SDS011;2010;48.194;16.394;2022-12-11T01:40:45;33.03;;;19.03;;
3991;SDS011;2010;48.194;16.394;2022-12-11T01:43:24;33.10;;;19.10;;
3991;SDS011;2010;48.194;16.394;2022-12-11T01:45:54;33.87;;;18.27;;
3991;SDS011;2010;48.194;16.394;2022-12-11T01:48:27;35.40;;;19.17;;
3991;SDS011;2010;48.194;16.394;2022-12-11T01:51:08;36.47;;;19.03;;
3991;SDS011;2010;48.194;16.394;2022-12-11T01:53:38;32.60;;;17.93;;
3991;SDS011;2010;48.194;16.394;2022-12-11T01:56:11;33.40;;;19.17;;
3991;SDS011;2010;48.194;16.394;2022-12-11T01:58:45;31.20;;;18.50;;
3991;SDS011;2010;48.194;16.394;2022-12-11T02:01:21;34.43;;;18.67;;
3991;SDS011;2010;48.194;16.394;2022-12-11T02:03:59;35.60;;;18.53;;
3991;SDS011;2010;48.194;16.394;2022-12-11T02:06:29;30.60;;;17.17;;
3991;SDS011;2010;48.194;16.394;2022-12-11T02:09:00;30.30;;;17.70;;
3991;SDS011;2010;48.194;16.394;2022-12-11T02:11:34;30.57;;;16.60;;
3991;SDS011;2010;48.194;16.394;2022-12-11T02:14:15;28.90;;;17.37;;
3991;SDS011;2010;48.194;16.394;2022-12-11T02:16:57;30.00;;;17.10;;
3991;SDS011;2010;48.194;16.394;2022-12-11T02:19:38;30.10;;;17.13;;
3991;SDS011;2010;48.194;16.394;2022-12-11T02:22:26;31.43;;;17.47;;
3991;SDS011;2010;48.194;16.394;2022-12-11T02:25:03;30.13;;;17.10;;
3991;SDS011;2010;48.194;16.394;2022-12-11T02:27:40;28.33;;;16.43;;
3991;SDS011;2010;48.194;16.394;2022-12-11T02:30:33;32.67;;;17.90;;
3991;SDS011;2010;48.194;16.394;2022-12-11T02:33:09;33.53;;;17.87;;
3991;SDS011;2010;48.194;16.394;2022-12-11T02:35:43;28.23;;;16.90;;
3991;SDS011;2010;48.194;16.394;2022-12-11T02:38:15;37.43;;;18.83;;
3991;SDS011;2010;48.194;16.394;2022-12-11T02:40:46;32.53;;;17.83;;
3991;SDS011;2010;48.194;16.394;2022-12-11T02:43:25;38.93;;;18.03;;
3991;SDS011;2010;48.194;16.394;2022-12-11T02:45:59;29.47;;;16.30;;
3991;SDS011;2010;48.194;16.394;2022-12-11T02:48:31;27.10;;;16.87;;
3991;SDS011;2010;48.194;16.394;2022-12-11T02:51:02;29.77;;;16.87;;
3991;SDS011;2010;48.194;16.394;2022-12-11T02:53:34;27.80;;;15.70;;
3991;SDS011;2010;48.194;16.394;2022-12-11T02:56:18;30.73;;;16.53;;
3991;SDS011;2010;48.194;16.394;2022-12-11T02:58:56;41.93;;;17.37;;
3991;SDS011;2010;48.194;16.394;2022-12-11T03:01:34;31.20;;;15.60;;
3991;SDS011;2010;48.194;16.394;2022-12-11T03:04:10;27.63;;;17.90;;
3991;SDS011;2010;48.194;16.394;2022-12-11T03:06:40;27.57;;;16.63;;
3991;SDS011;2010;48.194;16.394;2022-12-11T03:09:11;26.73;;;14.60;;
3991;SDS011;2010;48.194;16.394;2022-12-11T03:11:44;30.97;;;16.77;;
3991;SDS011;2010;48.194;16.394;2022-12-11T03:14:18;28.27;;;14.73;;
3991;SDS011;2010;48.194;16.394;2022-12-11T03:17:02;28.60;;;15.90;;
3991;SDS011;2010;48.194;16.394;2022-12-11T03:19:37;24.77;;;13.70;;
3991;SDS011;2010;48.194;16.394;2022-12-11T03:22:14;27.47;;;16.03;;
3991;SDS011;2010;48.194;16.394;2022-12-11T03:24:47;28.47;;;14.93;;
3991;SDS011;2010;48.194;16.394;2022-12-11T03:27:19;23.17;;;13.13;;
3991;SDS011;2010;48.194;16.394;2022-12-11T03:30:03;24.00;;;14.27;;
3991;SDS011;2010;48.194;16.394;2022-12-11T03:32:55;27.00;;;14.90;;
3991;SDS011;2010;48.194;16.394;2022-12-11T03:35:33;25.13;;;13.80;;
3991;SDS011;2010;48.194;16.394;2022-12-11T03:38:04;28.37;;;15.30;;
3991;SDS011;2010;48.194;16.394;2022-12-11T03:40:34;24.43;;;14.40;;
3991;SDS011;2010;48.194;16.394;2022-12-11T03:43:03;27.57;;;15.30;;
3991;SDS011;2010;48.194;16.394;2022-12-11T03:45:32;25.13;;;13.80;;
3991;SDS011;2010;48.194;16.394;2022-12-11T03:48:02;23.80;;;13.33;;
3991;SDS011;2010;48.194;16.394;2022-12-11T03:50:32;23.77;;;13.80;;
3991;SDS011;2010;48.194;16.394;2022-12-11T03:53:07;25.67;;;14.60;;
3991;SDS011;2010;48.194;16.394;2022-12-11T03:55:38;22.30;;;13.03;;
3991;SDS011;2010;48.194;16.394;2022-12-11T03:58:09;25.23;;;14.60;;
3991;SDS011;2010;48.194;16.394;2022-12-11T04:00:41;30.90;;;15.60;;
3991;SDS011;2010;48.194;16.394;2022-12-11T04:03:35;22.83;;;13.63;;
3991;SDS011;2010;48.194;16.394;2022-12-11T04:06:06;26.80;;;14.83;;
3991;SDS011;2010;48.194;16.394;2022-12-11T04:08:43;27.40;;;13.87;;
3991;SDS011;2010;48.194;16.394;2022-12-11T04:11:14;29.37;;;15.53;;
3991;SDS011;2010;48.194;16.394;2022-12-11T04:14:02;29.50;;;15.67;;
3991;SDS011;2010;48.194;16.394;2022-12-11T04:16:52;25.20;;;13.87;;
3991;SDS011;2010;48.194;16.394;2022-12-11T04:19:30;25.07;;;15.37;;
3991;SDS011;2010;48.194;16.394;2022-12-11T04:22:19;29.50;;;15.20;;
3991;SDS011;2010;48.194;16.394;2022-12-11T04:25:05;25.30;;;15.00;;
3991;SDS011;2010;48.194;16.394;2022-12-11T04:27:36;28.30;;;15.60;;
3991;SDS011;2010;48.194;16.394;2022-12-11T04:30:22;28.13;;;15.90;;
3991;SDS011;2010;48.194;16.394;2022-12-11T04:33:07;26.03;;;15.00;;
3991;SDS011;2010;48.194;16.394;2022-12-11T04:35:49;27.27;;;15.50;;
3991;SDS011;2010;48.194;16.394;2022-12-11T04:38:21;27.63;;;15.03;;
3991;SDS011;2010;48.194;16.394;2022-12-11T04:40:59;24.93;;;15.87;;
3991;SDS011;2010;48.194;16.394;2022-12-11T04:43:28;24.50;;;14.70;;
3991;SDS011;2010;48.194;16.394;2022-12-11T04:46:02;24.83;;;16.00;;
3991;SDS011;2010;48.194;16.394;2022-12-11T04:48:41;28.60;;;16.90;;
3991;SDS011;2010;48.194;16.394;2022-12-11T04:51:16;26.70;;;15.73;;
3991;SDS011;2010;48.194;16.394;2022-12-11T04:53:45;32.23;;;15.37;;
3991;SDS011;2010;48.194;16.394;2022-12-11T04:56:17;27.93;;;15.17;;
3991;SDS011;2010;48.194;16.394;2022-12-11T04:58:51;28.40;;;15.83;;
3991;SDS011;2010;48.194;16.394;2022-12-11T05:01:21;30.30;;;16.03;;
3991;SDS011;2010;48.194;16.394;2022-12-11T05:03:50;28.70;;;17.10;;
3991;SDS011;2010;48.194;16.394;2022-12-11T05:06:29;29.97;;;16.30;;
3991;SDS011;2010;48.194;16.394;2022-12-11T05:08:57;28.40;;;16.50;;
3991;SDS011;2010;48.194;16.394;2022-12-11T05:11:30;29.30;;;16.43;;
3991;SDS011;2010;48.194;16.394;2022-12-11T05:14:00;29.83;;;16.10;;
3991;SDS011;2010;48.194;16.394;2022-12-11T05:16:36;25.10;;;15.77;;
3991;SDS011;2010;48.194;16.394;2022-12-11T05:19:10;28.17;;;14.43;;
3991;SDS011;2010;48.194;16.394;2022-12-11T05:21:49;26.73;;;15.17;;
3991;SDS011;2010;48.194;16.394;2022-12-11T05:24:26;23.83;;;14.30;;
3991;SDS011;2010;48.194;16.394;2022-12-11T05:26:58;28.00;;;15.03;;
3991;SDS011;2010;48.194;16.394;2022-12-11T05:29:28;22.50;;;14.53;;
3991;SDS011;2010;48.194;16.394;2022-12-11T05:32:04;27.03;;;16.27;;
3991;SDS011;2010;48.194;16.394;2022-12-11T05:34:33;25.20;;;16.50;;
3991;SDS011;2010;48.194;16.394;2022-12-11T05:37:15;22.20;;;14.40;;
3991;SDS011;2010;48.194;16.394;2022-12-11T05:39:50;24.50;;;14.60;;
3991;SDS011;2010;48.194;16.394;2022-12-11T05:42:26;24.53;;;16.33;;
3991;SDS011;2010;48.194;16.394;2022-12-11T05:45:01;26.13;;;16.10;;
3991;SDS011;2010;48.194;16.394;2022-12-11T05:47:31;26.63;;;15.67;;
3991;SDS011;2010;48.194;16.394;2022-12-11T05:50:06;23.13;;;15.20;;
3991;SDS011;2010;48.194;16.394;2022-12-11T05:52:39;24.50;;;15.60;;
3991;SDS011;2010;48.194;16.394;2022-12-11T05:55:17;26.00;;;15.53;;
3991;SDS011;2010;48.194;16.394;2022-12-11T05:57:55;28.03;;;16.17;;
3991;SDS011;2010;48.194;16.394;2022-12-11T06:00:32;28.63;;;16.10;;
3991;SDS011;2010;48.194;16.394;2022-12-11T06:03:02;25.47;;;15.10;;
3991;SDS011;2010;48.194;16.394;2022-12-11T06:05:36;22.00;;;14.27;;
3991;SDS011;2010;48.194;16.394;2022-12-11T06:08:17;25.90;;;15.87;;
3991;SDS011;2010;48.194;16.394;2022-12-11T06:10:48;22.43;;;15.43;;
3991;SDS011;2010;48.194;16.394;2022-12-11T06:13:18;24.23;;;15.53;;
3991;SDS011;2010;48.194;16.394;2022-12-11T06:15:48;26.33;;;14.90;;
3991;SDS011;2010;48.194;16.394;2022-12-11T06:18:17;22.33;;;13.27;;
3991;SDS011;2010;48.194;16.394;2022-12-11T06:20:47;21.27;;;13.73;;
3991;SDS011;2010;48.194;16.394;2022-12-11T06:23:29;23.37;;;14.90;;
3991;SDS011;2010;48.194;16.394;2022-12-11T06:25:59;24.93;;;14.90;;
3991;SDS011;2010;48.194;16.394;2022-12-11T06:28:33;19.87;;;12.80;;
3991;SDS011;2010;48.194;16.394;2022-12-11T06:31:03;23.27;;;13.40;;
3991;SDS011;2010;48.194;16.394;2022-12-11T06:33:35;20.60;;;13.67;;
3991;SDS011;2010;48.194;16.394;2022-12-11T06:36:12;22.03;;;13.90;;
3991;SDS011;2010;48.194;16.394;2022-12-11T06:38:55;20.37;;;12.93;;
3991;SDS011;2010;48.194;16.394;2022-12-11T06:41:24;20.40;;;13.37;;
3991;SDS011;2010;48.194;16.394;2022-12-11T06:43:53;22.10;;;12.03;;
3991;SDS011;2010;48.194;16.394;2022-12-11T06:46:23;21.90;;;13.00;;
3991;SDS011;2010;48.194;16.394;2022-12-11T06:49:00;16.60;;;11.20;;
3991;SDS011;2010;48.194;16.394;2022-12-11T06:51:32;16.50;;;10.73;;
3991;SDS011;2010;48.194;16.394;2022-12-11T06:54:17;18.03;;;11.60;;
3991;SDS011;2010;48.194;16.394;2022-12-11T06:56:52;20.10;;;12.63;;
3991;SDS011;2010;48.194;16.394;2022-12-11T06:59:22;16.20;;;11.27;;
3991;SDS011;2010;48.194;16.394;2022-12-11T07:01:54;15.13;;;10.90;;
3991;SDS011;2010;48.194;16.394;2022-12-11T07:04:24;15.40;;;11.20;;
3991;SDS011;2010;48.194;16.394;2022-12-11T07:06:54;15.93;;;10.37;;
3991;SDS011;2010;48.194;16.394;2022-12-11T07:09:38;18.57;;;12.37;;
3991;SDS011;2010;48.194;16.394;2022-12-11T07:12:06;16.63;;;10.93;;
3991;SDS011;2010;48.194;16.394;2022-12-11T07:14:38;18.90;;;11.50;;
3991;SDS011;2010;48.194;16.394;2022-12-11T07:17:13;17.70;;;10.80;;
3991;SDS011;2010;48.194;16.394;2022-12-11T07:19:44;15.43;;;9.90;;
3991;SDS011;2010;48.194;16.394;2022-12-11T07:22:16;16.97;;;11.00;;
3991;SDS011;2010;48.194;16.394;2022-12-11T07:25:00;14.93;;;10.50;;
3991;SDS011;2010;48.194;16.394;2022-12-11T07:27:29;16.40;;;10.97;;
3991;SDS011;2010;48.194;16.394;2022-12-11T07:29:59;18.70;;;11.30;;
3991;SDS011;2010;48.194;16.394;2022-12-11T07:32:41;16.40;;;11.13;;
3991;SDS011;2010;48.194;16.394;2022-12-11T07:35:12;16.27;;;11.27;;
3991;SDS011;2010;48.194;16.394;2022-12-11T07:37:42;17.17;;;11.40;;
3991;SDS011;2010;48.194;16.394;2022-12-11T07:40:19;19.60;;;11.57;;
3991;SDS011;2010;48.194;16.394;2022-12-11T07:42:54;17.03;;;10.93;;
3991;SDS011;2010;48.194;16.394;2022-12-11T07:45:28;14.87;;;10.57;;
3991;SDS011;2010;48.194;16.394;2022-12-11T07:48:09;18.93;;;10.50;;
3991;SDS011;2010;48.194;16.394;2022-12-11T07:50:45;15.30;;;10.30;;
3991;SDS011;2010;48.194;16.394;2022-12-11T07:53:14;17.13;;;10.60;;
3991;SDS011;2010;48.194;16.394;2022-12-11T07:55:44;19.43;;;11.40;;
3991;SDS011;2010;48.194;16.394;2022-12-11T07:58:13;14.57;;;10.50;;
3991;SDS011;2010;48.194;16.394;2022-12-11T08:00:43;14.10;;;10.03;;
3991;SDS011;2010;48.194;16.394;2022-12-11T08:03:15;15.93;;;10.77;;
3991;SDS011;2010;48.194;16.394;2022-12-11T08:05:45;15.20;;;10.80;;
3991;SDS011;2010;48.194;16.394;2022-12-11T08:08:15;15.60;;;9.87;;
3991;SDS011;2010;48.194;16.394;2022-12-11T08:10:48;13.90;;;9.77;;
3991;SDS011;2010;48.194;16.394;2022-12-11T08:13:30;12.90;;;9.30;;
3991;SDS011;2010;48.194;16.394;2022-12-11T08:16:16;13.43;;;9.73;;
3991;SDS011;2010;48.194;16.394;2022-12-11T08:18:56;14.27;;;9.53;;
3991;SDS011;2010;48.194;16.394;2022-12-11T08:21:27;13.13;;;9.97;;
3991;SDS011;2010;48.194;16.394;2022-12-11T08:24:03;14.30;;;9.70;;
3991;SDS011;2010;48.194;16.394;2022-12-11T08:26:45;13.93;;;9.93;;
3991;SDS011;2010;48.194;16.394;2022-12-11T08:29:23;12.43;;;9.20;;
3991;SDS011;2010;48.194;16.394;2022-12-11T08:31:56;15.90;;;10.40;;
3991;SDS011;2010;48.194;16.394;2022-12-11T08:34:34;18.30;;;10.47;;
3991;SDS011;2010;48.194;16.394;2022-12-11T08:37:05;16.30;;;10.73;;
3991;SDS011;2010;48.194;16.394;2022-12-11T08:39:36;15.50;;;11.17;;
3991;SDS011;2010;48.194;16.394;2022-12-11T08:42:08;15.10;;;11.37;;
3991;SDS011;2010;48.194;16.394;2022-12-11T08:44:36;14.10;;;10.57;;
3991;SDS011;2010;48.194;16.394;2022-12-11T08:47:06;18.03;;;11.37;;
3991;SDS011;2010;48.194;16.394;2022-12-11T08:49:37;15.53;;;10.20;;
3991;SDS011;2010;48.194;16.394;2022-12-11T08:52:06;12.40;;;9.90;;
3991;SDS011;2010;48.194;16.394;2022-12-11T08:54:35;13.70;;;10.37;;
3991;SDS011;2010;48.194;16.394;2022-12-11T08:57:10;18.13;;;9.70;;
3991;SDS011;2010;48.194;16.394;2022-12-11T08:59:42;12.20;;;8.67;;
3991;SDS011;2010;48.194;16.394;2022-12-11T09:02:13;13.07;;;8.90;;
3991;SDS011;2010;48.194;16.394;2022-12-11T09:04:42;11.60;;;9.20;;
3991;SDS011;2010;48.194;16.394;2022-12-11T09:07:26;12.70;;;8.77;;
3991;SDS011;2010;48.194;16.394;2022-12-11T09:10:02;14.17;;;9.70;;
3991;SDS011;2010;48.194;16.394;2022-12-11T09:12:35;14.13;;;8.80;;
3991;SDS011;2010;48.194;16.394;2022-12-11T09:15:06;12.70;;;7.97;;
3991;SDS011;2010;48.194;16.394;2022-12-11T09:17:36;13.00;;;8.97;;
3991;SDS011;2010;48.194;16.394;2022-12-11T09:20:06;11.73;;;7.80;;
3991;SDS011;2010;48.194;16.394;2022-12-11T09:22:38;13.00;;;7.90;;
3991;SDS011;2010;48.194;16.394;2022-12-11T09:25:09;10.90;;;8.10;;
3991;SDS011;2010;48.194;16.394;2022-12-11T09:27:51;10.90;;;7.50;;
3991;SDS011;2010;48.194;16.394;2022-12-11T09:30:22;11.03;;;7.57;;
3991;SDS011;2010;48.194;16.394;2022-12-11T09:32:52;14.37;;;7.90;;
3991;SDS011;2010;48.194;16.394;2022-12-11T09:35:27;12.37;;;8.87;;
3991;SDS011;2010;48.194;16.394;2022-12-11T09:37:57;12.50;;;8.90;;
3991;SDS011;2010;48.194;16.394;2022-12-11T09:40:25;12.47;;;9.07;;
3991;SDS011;2010;48.194;16.394;2022-12-11T09:43:12;12.10;;;8.00;;
3991;SDS011;2010;48.194;16.394;2022-12-11T09:45:50;10.73;;;8.20;;
3991;SDS011;2010;48.194;16.394;2022-12-11T09:48:23;12.50;;;7.70;;
3991;SDS011;2010;48.194;16.394;2022-12-11T09:51:01;12.40;;;8.57;;
3991;SDS011;2010;48.194;16.394;2022-12-11T09:53:37;13.10;;;8.47;;
3991;SDS011;2010;48.194;16.394;2022-12-11T09:56:09;12.60;;;7.80;;
3991;SDS011;2010;48.194;16.394;2022-12-11T09:58:50;11.60;;;7.27;;
3991;SDS011;2010;48.194;16.394;2022-12-11T10:01:36;11.10;;;8.13;;
3991;SDS011;2010;48.194;16.394;2022-12-11T10:07:08;13.63;;;7.67;;
3991;SDS011;2010;48.194;16.394;2022-12-11T10:09:47;9.90;;;7.40;;
3991;SDS011;2010;48.194;16.394;2022-12-11T10:12:23;9.43;;;6.90;;
3991;SDS011;2010;48.194;16.394;2022-12-11T10:18:00;9.97;;;7.03;;
3991;SDS011;2010;48.194;16.394;2022-12-11T10:20:38;11.40;;;7.63;;
3991;SDS011;2010;48.194;16.394;2022-12-11T10:23:14;10.30;;;7.60;;
3991;SDS011;2010;48.194;16.394;2022-12-11T10:25:50;10.97;;;7.77;;
3991;SDS011;2010;48.194;16.394;2022-12-11T10:28:26;8.30;;;7.43;;
3991;SDS011;2010;48.194;16.394;2022-12-11T10:31:04;11.93;;;7.03;;
3991;SDS011;2010;48.194;16.394;2022-12-11T10:33:40;17.60;;;7.10;;
3991;SDS011;2010;48.194;16.394;2022-12-11T10:36:16;9.83;;;7.70;;
3991;SDS011;2010;48.194;16.394;2022-12-11T10:38:56;9.30;;;7.50;;
3991;SDS011;2010;48.194;16.394;2022-12-11T10:41:32;7.90;;;6.13;;
3991;SDS011;2010;48.194;16.394;2022-12-11T10:44:15;11.97;;;7.50;;
3991;SDS011;2010;48.194;16.394;2022-12-11T10:49:32;12.70;;;7.07;;
3991;SDS011;2010;48.194;16.394;2022-12-11T10:52:08;9.80;;;6.90;;
3991;SDS011;2010;48.194;16.394;2022-12-11T10:54:38;9.23;;;6.73;;
3991;SDS011;2010;48.194;16.394;2022-12-11T10:57:08;11.23;;;7.37;;
3991;SDS011;2010;48.194;16.394;2022-12-11T10:59:43;10.30;;;7.73;;
3991;SDS011;2010;48.194;16.394;2022-12-11T11:02:22;10.73;;;7.20;;
3991;SDS011;2010;48.194;16.394;2022-12-11T11:04:53;13.87;;;8.27;;
3991;SDS011;2010;48.194;16.394;2022-12-11T11:07:25;11.37;;;7.57;;
3991;SDS011;2010;48.194;16.394;2022-12-11T11:10:13;10.33;;;7.20;;
3991;SDS011;2010;48.194;16.394;2022-12-11T11:12:47;9.60;;;7.10;;
3991;SDS011;2010;48.194;16.394;2022-12-11T11:15:16;10.13;;;7.20;;
3991;SDS011;2010;48.194;16.394;2022-12-11T11:17:55;12.23;;;7.57;;
3991;SDS011;2010;48.194;16.394;2022-12-11T11:20:25;10.27;;;7.80;;
3991;SDS011;2010;48.194;16.394;2022-12-11T11:23:10;12.10;;;8.03;;
3991;SDS011;2010;48.194;16.394;2022-12-11T11:25:52;12.97;;;8.03;;
3991;SDS011;2010;48.194;16.394;2022-12-11T11:28:26;11.93;;;7.93;;
3991;SDS011;2010;48.194;16.394;2022-12-11T11:30:59;11.73;;;8.77;;
3991;SDS011;2010;48.194;16.394;2022-12-11T11:33:34;14.03;;;8.83;;
3991;SDS011;2010;48.194;16.394;2022-12-11T11:36:06;13.27;;;7.70;;
3991;SDS011;2010;48.194;16.394;2022-12-11T11:38:57;9.70;;;7.47;;
3991;SDS011;2010;48.194;16.394;2022-12-11T11:41:36;11.07;;;7.93;;
3991;SDS011;2010;48.194;16.394;2022-12-11T11:44:14;10.80;;;8.30;;
3991;SDS011;2010;48.194;16.394;2022-12-11T11:46:46;8.70;;;6.50;;
3991;SDS011;2010;48.194;16.394;2022-12-11T11:49:43;10.60;;;7.07;;
3991;SDS011;2010;48.194;16.394;2022-12-11T11:52:23;9.70;;;6.90;;
3991;SDS011;2010;48.194;16.394;2022-12-11T11:55:00;10.50;;;7.10;;
3991;SDS011;2010;48.194;16.394;2022-12-11T11:57:38;9.80;;;7.07;;
3991;SDS011;2010;48.194;16.394;2022-12-11T12:00:17;13.07;;;8.03;;
3991;SDS011;2010;48.194;16.394;2022-12-11T12:02:59;11.47;;;7.33;;
3991;SDS011;2010;48.194;16.394;2022-12-11T12:05:50;8.50;;;6.63;;
3991;SDS011;2010;48.194;16.394;2022-12-11T12:08:25;11.23;;;6.47;;
3991;SDS011;2010;48.194;16.394;2022-12-11T12:11:05;8.20;;;6.30;;
3991;SDS011;2010;48.194;16.394;2022-12-11T12:13:44;7.10;;;6.10;;
3991;SDS011;2010;48.194;16.394;2022-12-11T12:16:25;7.50;;;6.00;;
3991;SDS011;2010;48.194;16.394;2022-12-11T12:19:25;11.73;;;8.70;;
3991;SDS011;2010;48.194;16.394;2022-12-11T12:22:07;9.37;;;6.57;;
3991;SDS011;2010;48.194;16.394;2022-12-11T12:24:44;10.20;;;7.57;;
3991;SDS011;2010;48.194;16.394;2022-12-11T12:27:37;11.60;;;6.33;;
3991;SDS011;2010;48.194;16.394;2022-12-11T12:30:20;11.27;;;7.07;;
3991;SDS011;2010;48.194;16.394;2022-12-11T12:32:56;9.67;;;7.50;;
3991;SDS011;2010;48.194;16.394;2022-12-11T12:36:04;8.87;;;6.47;;
3991;SDS011;2010;48.194;16.394;2022-12-11T12:38:57;9.33;;;6.43;;
3991;SDS011;2010;48.194;16.394;2022-12-11T12:41:34;9.70;;;6.33;;
3991;SDS011;2010;48.194;16.394;2022-12-11T12:44:11;9.80;;;6.70;;
3991;SDS011;2010;48.194;16.394;2022-12-11T12:46:52;10.20;;;7.10;;
3991;SDS011;2010;48.194;16.394;2022-12-11T12:49:35;12.37;;;6.80;;
3991;SDS011;2010;48.194;16.394;2022-12-11T12:52:20;11.47;;;7.43;;
3991;SDS011;2010;48.194;16.394;2022-12-11T12:55:12;12.80;;;7.93;;
3991;SDS011;2010;48.194;16.394;2022-12-11T12:57:49;9.63;;;7.47;;
3991;SDS011;2010;48.194;16.394;2022-12-11T13:00:29;12.37;;;8.43;;
3991;SDS011;2010;48.194;16.394;2022-12-11T13:03:00;10.33;;;7.50;;
3991;SDS011;2010;48.194;16.394;2022-12-11T13:05:32;9.37;;;7.20;;
3991;SDS011;2010;48.194;16.394;2022-12-11T13:08:05;10.77;;;7.10;;
3991;SDS011;2010;48.194;16.394;2022-12-11T13:10:42;10.70;;;7.30;;
3991;SDS011;2010;48.194;16.394;2022-12-11T13:16:24;8.20;;;6.20;;
3991;SDS011;2010;48.194;16.394;2022-12-11T13:18:58;10.90;;;7.70;;
3991;SDS011;2010;48.194;16.394;2022-12-11T13:21:29;12.07;;;7.90;;
3991;SDS011;2010;48.194;16.394;2022-12-11T13:24:14;10.70;;;7.67;;
3991;SDS011;2010;48.194;16.394;2022-12-11T13:27:06;9.83;;;7.60;;
3991;SDS011;2010;48.194;16.394;2022-12-11T13:30:03;11.23;;;7.47;;
3991;SDS011;2010;48.194;16.394;2022-12-11T13:32:36;11.03;;;7.57;;
3991;SDS011;2010;48.194;16.394;2022-12-11T13:35:13;10.67;;;7.93;;
3991;SDS011;2010;48.194;16.394;2022-12-11T13:37:48;11.07;;;8.27;;
3991;SDS011;2010;48.194;16.394;2022-12-11T13:40:26;9.43;;;7.33;;
3991;SDS011;2010;48.194;16.394;2022-12-11T13:43:04;10.77;;;8.07;;
3991;SDS011;2010;48.194;16.394;2022-12-11T13:45:46;20.60;;;8.77;;
3991;SDS011;2010;48.194;16.394;2022-12-11T13:48:25;9.07;;;7.07;;
3991;SDS011;2010;48.194;16.394;2022-12-11T13:51:04;12.30;;;8.50;;
3991;SDS011;2010;48.194;16.394;2022-12-11T13:53:37;9.60;;;6.60;;
3991;SDS011;2010;48.194;16.394;2022-12-11T13:56:15;11.50;;;7.50;;
3991;SDS011;2010;48.194;16.394;2022-12-11T13:58:52;9.27;;;7.07;;
3991;SDS011;2010;48.194;16.394;2022-12-11T14:01:25;8.47;;;6.87;;
3991;SDS011;2010;48.194;16.394;2022-12-11T14:04:01;12.37;;;7.93;;
3991;SDS011;2010;48.194;16.394;2022-12-11T14:06:36;9.43;;;6.70;;
3991;SDS011;2010;48.194;16.394;2022-12-11T14:09:13;9.10;;;6.63;;
3991;SDS011;2010;48.194;16.394;2022-12-11T14:11:47;11.13;;;7.70;;
3991;SDS011;2010;48.194;16.394;2022-12-11T14:14:37;9.43;;;7.17;;
3991;SDS011;2010;48.194;16.394;2022-12-11T14:17:10;8.00;;;6.87;;
3991;SDS011;2010;48.194;16.394;2022-12-11T14:19:41;8.90;;;7.00;;
3991;SDS011;2010;48.194;16.394;2022-12-11T14:22:20;9.37;;;6.90;;
3991;SDS011;2010;48.194;16.394;2022-12-11T14:24:55;9.00;;;6.47;;
3991;SDS011;2010;48.194;16.394;2022-12-11T14:27:26;8.00;;;6.67;;
3991;SDS011;2010;48.194;16.394;2022-12-11T14:30:07;9.80;;;6.80;;
3991;SDS011;2010;48.194;16.394;2022-12-11T14:32:47;8.47;;;6.87;;
3991;SDS011;2010;48.194;16.394;2022-12-11T14:35:30;13.50;;;7.60;;
3991;SDS011;2010;48.194;16.394;2022-12-11T14:38:07;10.10;;;7.00;;
3991;SDS011;2010;48.194;16.394;2022-12-11T14:40:41;8.10;;;6.10;;
3991;SDS011;2010;48.194;16.394;2022-12-11T14:43:22;11.23;;;6.63;;
3991;SDS011;2010;48.194;16.394;2022-12-11T14:45:56;11.10;;;6.87;;
3991;SDS011;2010;48.194;16.394;2022-12-11T14:48:32;11.87;;;7.70;;
3991;SDS011;2010;48.194;16.394;2022-12-11T14:51:09;21.80;;;7.70;;
3991;SDS011;2010;48.194;16.394;2022-12-11T14:53:54;10.40;;;7.83;;
3991;SDS011;2010;48.194;16.394;2022-12-11T14:56:32;12.13;;;7.97;;
3991;SDS011;2010;48.194;16.394;2022-12-11T14:59:18;10.67;;;8.00;;
3991;SDS011;2010;48.194;16.394;2022-12-11T15:02:00;10.03;;;6.70;;
3991;SDS011;2010;48.194;16.394;2022-12-11T15:04:35;12.33;;;7.63;;
3991;SDS011;2010;48.194;16.394;2022-12-11T15:07:15;11.50;;;7.10;;
3991;SDS011;2010;48.194;16.394;2022-12-11T15:09:52;11.40;;;7.90;;
3991;SDS011;2010;48.194;16.394;2022-12-11T15:12:25;8.00;;;6.93;;
3991;SDS011;2010;48.194;16.394;2022-12-11T15:14:55;11.50;;;8.23;;
3991;SDS011;2010;48.194;16.394;2022-12-11T15:17:30;12.57;;;7.80;;
3991;SDS011;2010;48.194;16.394;2022-12-11T15:20:02;10.17;;;7.10;;
3991;SDS011;2010;48.194;16.394;2022-12-11T15:22:41;11.80;;;7.53;;
3991;SDS011;2010;48.194;16.394;2022-12-11T15:25:16;10.10;;;6.80;;
3991;SDS011;2010;48.194;16.394;2022-12-11T15:27:49;10.53;;;7.70;;
3991;SDS011;2010;48.194;16.394;2022-12-11T15:30:26;11.00;;;7.70;;
3991;SDS011;2010;48.194;16.394;2022-12-11T15:33:14;12.23;;;8.30;;
3991;SDS011;2010;48.194;16.394;2022-12-11T15:36:04;11.70;;;6.70;;
3991;SDS011;2010;48.194;16.394;2022-12-11T15:38:54;9.80;;;6.57;;
3991;SDS011;2010;48.194;16.394;2022-12-11T15:41:29;8.63;;;6.43;;
3991;SDS011;2010;48.194;16.394;2022-12-11T15:44:02;8.50;;;6.43;;
3991;SDS011;2010;48.194;16.394;2022-12-11T15:46:45;9.80;;;7.80;;